Time;durP1;ratioP1;P1;durP2;ratioP2;P2;SDS_P1;SDS_P2;PMS_P1;PMS_P2;Temp;Humidity;BMP_temperature;BMP_pressure;BME280_temperature;BME280_humidity;BME280_pressure;Samples;Min_cycle;Max_cycle;Signal;HPM_P1;HPM_P2
2021/04/15 00:00:21;;;;;;;1.77;1.48;;;21.40;29.80;;;;;;4958044;28;20113;-74
2021/04/15 00:02:47;;;;;;;2.38;1.33;;;21.30;29.70;;;;;;4973069;28;20031;-73
2021/04/15 00:05:13;;;;;;;6.22;1.90;;;21.30;29.80;;;;;;4960429;28;20034;-72
2021/04/15 00:07:39;;;;;;;3.00;2.42;;;21.30;29.70;;;;;;4991566;28;20038;-72
2021/04/15 00:10:09;;;;;;;2.15;1.77;;;21.30;29.80;;;;;;4976862;28;20516;-72
2021/04/15 00:12:35;;;;;;;3.58;1.63;;;21.30;29.70;;;;;;4976736;28;20088;-72
2021/04/15 00:15:02;;;;;;;3.72;1.67;;;21.30;29.70;;;;;;4976567;28;20030;-72
2021/04/15 00:17:27;;;;;;;3.72;1.70;;;21.30;29.70;;;;;;4976319;28;20043;-72
2021/04/15 00:19:53;;;;;;;4.03;1.90;;;21.30;29.70;;;;;;4994080;28;20081;-72
2021/04/15 00:22:25;;;;;;;2.45;1.50;;;21.30;29.70;;;;;;5012150;28;20406;-74
2021/04/15 00:24:50;;;;;;;2.97;1.45;;;21.20;29.70;;;;;;4978783;28;20468;-74
2021/04/15 00:27:20;;;;;;;2.75;1.38;;;21.20;29.70;;;;;;4976627;28;20022;-74
2021/04/15 00:29:46;;;;;;;2.53;1.40;;;21.20;29.70;;;;;;4976676;28;20072;-74
2021/04/15 00:32:11;;;;;;;2.55;1.30;;;21.20;29.80;;;;;;4993155;28;20030;-74
2021/04/15 00:34:37;;;;;;;2.85;1.25;;;21.20;29.80;;;;;;4993824;28;20026;-74
2021/04/15 00:37:02;;;;;;;4.45;1.50;;;21.20;29.80;;;;;;4977890;28;20113;-74
2021/04/15 00:39:28;;;;;;;2.28;1.40;;;21.20;29.80;;;;;;5003375;28;20026;-74
2021/04/15 00:41:54;;;;;;;2.97;1.30;;;21.20;29.80;;;;;;4993085;28;20038;-74
2021/04/15 00:44:19;;;;;;;3.38;1.30;;;21.10;29.80;;;;;;4991884;28;20050;-73
2021/04/15 00:46:58;;;;;;;2.10;1.30;;;21.10;29.80;;;;;;4976007;28;20031;-73
2021/04/15 00:49:28;;;;;;;2.65;1.52;;;21.10;29.80;;;;;;5007708;28;20026;-73
2021/04/15 00:51:56;;;;;;;1.52;1.30;;;21.10;29.80;;;;;;4991141;28;20065;-73
2021/04/15 00:54:31;;;;;;;2.30;1.55;;;21.10;29.80;;;;;;4959285;28;20070;-73
2021/04/15 00:56:56;;;;;;;5.28;1.40;;;21.10;29.80;;;;;;4976465;28;20022;-73
2021/04/15 00:59:22;;;;;;;3.72;1.42;;;21.10;29.80;;;;;;4959218;28;20034;-74
2021/04/15 01:01:48;;;;;;;2.55;1.52;;;21.00;29.80;;;;;;4991405;28;20026;-74
2021/04/15 01:04:13;;;;;;;2.65;1.83;;;21.00;29.80;;;;;;4975533;28;20125;-74
2021/04/15 01:06:39;;;;;;;2.05;1.48;;;21.00;29.80;;;;;;4990848;28;20061;-74
2021/04/15 01:09:04;;;;;;;3.45;1.58;;;21.00;29.90;;;;;;4993455;28;20073;-74
2021/04/15 01:11:38;;;;;;;4.82;1.55;;;21.00;29.90;;;;;;5007540;28;20372;-74
2021/04/15 01:14:11;;;;;;;1.70;1.58;;;21.00;29.90;;;;;;4991256;28;20030;-74
2021/04/15 01:17:00;;;;;;;2.17;1.25;;;20.90;30.00;;;;;;4989112;28;20026;-74
2021/04/15 01:19:44;;;;;;;4.00;1.52;;;20.90;29.90;;;;;;5007676;28;20031;-74
2021/04/15 01:22:09;;;;;;;3.60;1.85;;;20.90;29.90;;;;;;4984925;28;20022;-75
2021/04/15 01:24:44;;;;;;;2.15;1.70;;;20.90;30.00;;;;;;4992482;28;20026;-74
2021/04/15 01:27:31;;;;;;;5.45;1.80;;;20.90;29.90;;;;;;4975022;28;20035;-75
2021/04/15 01:30:15;;;;;;;3.03;1.58;;;20.90;29.90;;;;;;5008083;28;20109;-74
2021/04/15 01:33:07;;;;;;;3.72;1.70;;;20.90;30.00;;;;;;4977837;28;20482;-74
2021/04/15 01:35:42;;;;;;;3.28;1.90;;;20.90;29.90;;;;;;4913129;29;20551;-76
2021/04/15 01:38:25;;;;;;;3.97;1.60;;;20.80;29.90;;;;;;4897398;29;20036;-74
2021/04/15 01:40:55;;;;;;;4.30;1.77;;;20.90;29.90;;;;;;4906824;29;20048;-72
2021/04/15 01:43:26;;;;;;;1.70;1.55;;;20.90;30.00;;;;;;4912791;29;20126;-74
2021/04/15 01:45:58;;;;;;;2.97;1.70;;;20.90;29.90;;;;;;4929613;29;20060;-73
2021/04/15 01:48:42;;;;;;;2.78;1.65;;;20.90;29.90;;;;;;4913807;29;20481;-73
2021/04/15 01:51:11;;;;;;;3.85;1.73;;;20.90;29.90;;;;;;4913327;29;20029;-73
2021/04/15 01:54:03;;;;;;;5.95;1.95;;;20.90;29.90;;;;;;4927713;29;20040;-74
2021/04/15 01:56:56;;;;;;;3.10;1.88;;;20.90;29.80;;;;;;4897394;29;20036;-73
2021/04/15 01:59:32;;;;;;;2.13;1.52;;;20.80;29.90;;;;;;4913859;29;20506;-73
2021/04/15 02:02:01;;;;;;;5.97;1.80;;;20.90;29.90;;;;;;4896605;29;20094;-74
2021/04/15 02:04:37;;;;;;;4.50;1.75;;;20.80;29.80;;;;;;4912728;29;20075;-73
2021/04/15 02:07:15;;;;;;;5.13;2.22;;;20.80;29.90;;;;;;4929094;29;20071;-73
2021/04/15 02:09:41;;;;;;;3.00;1.83;;;20.80;29.80;;;;;;4882544;29;20039;-72
2021/04/15 02:12:17;;;;;;;3.13;1.90;;;20.80;29.90;;;;;;4932858;28;20030;-73
2021/04/15 02:14:44;;;;;;;4.55;2.33;;;20.80;29.90;;;;;;4960069;28;20062;-73
2021/04/15 02:17:10;;;;;;;4.40;2.13;;;20.80;30.40;;;;;;5007717;28;20433;-78
2021/04/15 02:19:43;;;;;;;4.32;2.20;;;20.80;29.90;;;;;;5007026;28;20114;-78
2021/04/15 02:22:12;;;;;;;3.70;2.28;;;20.80;29.90;;;;;;4975881;28;20084;-79
2021/04/15 02:24:45;;;;;;;3.65;2.20;;;20.80;29.90;;;;;;4978159;28;20065;-76
2021/04/15 02:27:13;;;;;;;2.65;1.73;;;20.80;29.90;;;;;;4993998;28;20045;-76
2021/04/15 02:29:39;;;;;;;3.42;2.03;;;20.80;29.90;;;;;;4994166;28;20018;-77
2021/04/15 02:32:20;;;;;;;2.47;2.05;;;20.70;29.90;;;;;;4978876;28;20053;-73
2021/04/15 02:34:59;;;;;;;3.85;1.90;;;20.70;29.90;;;;;;4979945;28;20546;-73
2021/04/15 02:37:42;;;;;;;4.13;2.10;;;20.70;29.90;;;;;;4994147;28;20073;-73
2021/04/15 02:40:23;;;;;;;3.40;2.40;;;20.70;29.90;;;;;;4969214;28;20030;-73
2021/04/15 02:42:52;;;;;;;4.82;2.60;;;20.70;29.90;;;;;;4975393;28;20105;-73
2021/04/15 02:45:31;;;;;;;3.70;2.00;;;20.60;29.90;;;;;;4960562;28;20047;-73
2021/04/15 02:48:10;;;;;;;3.72;2.15;;;20.60;29.90;;;;;;4974197;28;20059;-78
2021/04/15 02:50:36;;;;;;;5.68;2.08;;;20.60;29.90;;;;;;4979797;28;20026;-78
2021/04/15 02:53:13;;;;;;;2.58;2.08;;;20.60;30.00;;;;;;4978267;28;20049;-78
2021/04/15 02:55:43;;;;;;;3.25;2.45;;;20.60;30.00;;;;;;4978524;28;20022;-78
2021/04/15 02:58:18;;;;;;;2.22;2.00;;;20.60;30.00;;;;;;4977358;28;20026;-78
2021/04/15 03:00:45;;;;;;;4.00;2.37;;;20.60;30.00;;;;;;4972634;28;20035;-78
2021/04/15 03:03:12;;;;;;;3.78;2.40;;;20.60;29.90;;;;;;4994231;28;20829;-78
2021/04/15 03:05:40;;;;;;;6.25;2.58;;;20.60;29.90;;;;;;4994047;28;20026;-73
2021/04/15 03:08:06;;;;;;;5.55;2.58;;;20.50;29.90;;;;;;4977802;28;20117;-74
2021/04/15 03:10:33;;;;;;;3.13;2.55;;;20.50;29.90;;;;;;4994161;28;20105;-73
2021/04/15 03:13:10;;;;;;;3.50;2.70;;;20.50;29.90;;;;;;4961580;28;20045;-73
2021/04/15 03:16:03;;;;;;;5.97;2.97;;;20.60;30.00;;;;;;4993621;28;20023;-73
2021/04/15 03:22:22;;;;;;;4.55;2.55;;;20.50;29.90;;;;;;4994498;28;20025;-73
2021/04/15 03:24:51;;;;;;;;;;;20.50;29.90;;;;;;4983677;28;20057;-74
2021/04/15 03:27:28;;;;;;;6.20;3.20;;;20.50;29.90;;;;;;4960729;28;19914;-73
2021/04/15 03:30:07;;;;;;;3.20;2.78;;;20.50;29.90;;;;;;4987455;28;20045;-73
2021/04/15 03:32:54;;;;;;;4.25;2.60;;;20.50;30.00;;;;;;4978693;28;20402;-73
2021/04/15 03:35:25;;;;;;;4.65;2.25;;;20.50;29.90;;;;;;4962323;28;20027;-73
2021/04/15 03:38:14;;;;;;;5.55;3.28;;;20.50;29.80;;;;;;4960841;28;20092;-73
2021/04/15 03:40:45;;;;;;;4.80;2.63;;;20.50;29.80;;;;;;4992831;28;20034;-72
2021/04/15 03:43:14;;;;;;;3.20;2.30;;;20.50;29.80;;;;;;4977513;28;20041;-72
2021/04/15 03:45:44;;;;;;;2.95;2.30;;;20.50;29.80;;;;;;4977437;28;20042;-73
2021/04/15 03:48:18;;;;;;;5.32;2.53;;;20.50;30.40;;;;;;4969376;28;20066;-73
2021/04/15 03:50:56;;;;;;;3.75;2.80;;;20.50;29.80;;;;;;4976477;28;20022;-73
2021/04/15 03:53:31;;;;;;;3.88;2.58;;;20.50;29.80;;;;;;4969181;28;20597;-79
2021/04/15 03:55:59;;;;;;;3.45;2.80;;;20.50;29.80;;;;;;4968932;28;20889;-79
2021/04/15 03:58:42;;;;;;;2.78;2.38;;;20.50;29.80;;;;;;4976632;28;20015;-79
2021/04/15 04:01:29;;;;;;;0.00;0.00;;;20.50;29.80;;;;;;4945779;28;20387;-79
2021/04/15 04:04:08;;;;;;;5.00;2.67;;;20.50;29.80;;;;;;4890810;29;20132;-79
2021/04/15 04:06:36;;;;;;;0.00;0.00;;;20.50;29.80;;;;;;4883768;29;20046;-79
2021/04/15 04:09:09;;;;;;;0.20;0.20;;;20.50;29.80;;;;;;4886368;29;20036;-78
2021/04/15 04:11:34;;;;;;;2.53;2.33;;;20.50;29.80;;;;;;4913392;29;20024;-78
2021/04/15 04:14:17;;;;;;;0.03;0.03;;;20.50;29.80;;;;;;4889738;29;20588;-78
2021/04/15 04:16:44;;;;;;;4.22;3.20;;;20.50;29.80;;;;;;4893787;29;20028;-78
2021/04/15 04:22:46;;;;;;;3.78;2.67;;;20.50;29.80;;;;;;4911110;29;20035;-78
2021/04/15 04:25:20;;;;;;;0.60;0.25;;;20.50;29.70;;;;;;4895393;29;20123;-78
2021/04/15 04:28:04;;;;;;;0.00;0.00;;;20.50;29.80;;;;;;4876118;29;20032;-78
2021/04/15 04:30:34;;;;;;;2.63;2.42;;;20.50;29.70;;;;;;4876538;29;20048;-79
2021/04/15 04:33:02;;;;;;;0.10;0.10;;;20.40;29.80;;;;;;4895969;29;20123;-78
2021/04/15 04:35:29;;;;;;;3.42;2.80;;;20.40;29.70;;;;;;4895753;29;20041;-78
2021/04/15 04:37:56;;;;;;;0.00;0.00;;;20.40;29.70;;;;;;4895156;29;20207;-78
2021/04/15 04:43:55;;;;;;;0.00;0.00;;;20.40;29.70;;;;;;4993573;28;20041;-78
2021/04/15 04:46:35;;;;;;;0.32;0.32;;;20.40;29.80;;;;;;5007097;28;20151;-77
2021/04/15 04:49:04;;;;;;;2.83;1.80;;;20.40;29.70;;;;;;4980418;28;20094;-75
2021/04/15 04:51:50;;;;;;;0.15;0.10;;;20.30;29.70;;;;;;4961416;28;20023;-78
2021/04/15 04:54:19;;;;;;;4.43;2.55;;;20.30;29.70;;;;;;4992759;28;20557;-78
2021/04/15 04:56:51;;;;;;;0.10;0.00;;;20.30;29.70;;;;;;4962005;28;20407;-77
2021/04/15 04:59:29;;;;;;;5.30;3.13;;;20.30;29.70;;;;;;4975670;28;20093;-77
2021/04/15 05:01:55;;;;;;;0.65;0.32;;;20.30;29.70;;;;;;4975449;28;20449;-76
2021/04/15 05:04:20;;;;;;;3.95;0.55;;;20.30;29.70;;;;;;4959715;28;20053;-75
2021/04/15 05:06:46;;;;;;;2.88;2.30;;;20.20;29.70;;;;;;4975987;28;20499;-76
2021/04/15 05:09:25;;;;;;;0.00;0.00;;;20.20;29.80;;;;;;4975431;28;20026;-74
2021/04/15 05:11:51;;;;;;;0.45;0.22;;;20.30;30.00;;;;;;4973134;28;20085;-77
2021/04/15 05:14:21;;;;;;;2.95;1.95;;;20.20;30.20;;;;;;4959179;28;20537;-75
2021/04/15 05:17:18;;;;;;;0.17;0.10;;;20.20;30.20;;;;;;5007700;28;20050;-75
2021/04/15 05:19:44;;;;;;;3.58;2.40;;;20.30;30.30;;;;;;4976007;28;20449;-75
2021/04/15 05:22:09;;;;;;;0.45;0.20;;;20.30;30.30;;;;;;4989000;28;20089;-75
2021/04/15 05:24:42;;;;;;;0.10;0.10;;;20.40;30.30;;;;;;4975180;28;20482;-75
2021/04/15 05:27:07;;;;;;;4.18;2.55;;;20.40;30.10;;;;;;4991964;28;20046;-74
2021/04/15 05:29:35;;;;;;;0.20;0.20;;;20.50;30.10;;;;;;4975768;28;20064;-74
2021/04/15 05:32:01;;;;;;;0.75;0.28;;;20.60;30.00;;;;;;4963883;28;20046;-75
2021/04/15 05:34:41;;;;;;;5.78;2.90;;;20.60;30.00;;;;;;4964854;28;20030;-74
2021/04/15 05:37:08;;;;;;;0.10;0.10;;;20.70;30.00;;;;;;4974051;28;20034;-75
2021/04/15 05:39:40;;;;;;;0.10;0.10;;;20.70;29.90;;;;;;4958862;28;20045;-74
2021/04/15 05:42:07;;;;;;;0.10;0.10;;;20.80;29.90;;;;;;4974422;28;20030;-75
2021/04/15 05:44:43;;;;;;;0.00;0.00;;;20.90;29.90;;;;;;4975140;28;20415;-75
2021/04/15 05:47:25;;;;;;;0.10;0.03;;;20.90;29.70;;;;;;4975130;28;20163;-75
2021/04/15 05:49:59;;;;;;;0.10;0.10;;;21.00;29.70;;;;;;4996975;28;20577;-75
2021/04/15 05:52:29;;;;;;;0.75;0.35;;;21.10;29.60;;;;;;4975956;28;20042;-76
2021/04/15 05:54:58;;;;;;;0.15;0.15;;;21.20;29.50;;;;;;4975182;28;20516;-75
2021/04/15 05:57:28;;;;;;;0.32;0.10;;;21.30;29.50;;;;;;4949250;28;20035;-75
2021/04/15 06:00:10;;;;;;;0.05;0.05;;;21.30;29.40;;;;;;4979440;28;20089;-75
2021/04/15 06:02:52;;;;;;;2.42;0.22;;;21.40;29.40;;;;;;5010408;28;20030;-73
2021/04/15 06:05:38;;;;;;;0.70;0.40;;;21.40;29.80;;;;;;4993624;28;20030;-74
2021/04/15 06:08:06;;;;;;;0.10;0.10;;;21.50;29.30;;;;;;4972868;28;20041;-74
2021/04/15 06:10:33;;;;;;;0.30;0.10;;;21.50;29.30;;;;;;4979842;28;20104;-74
2021/04/15 06:13:12;;;;;;;0.22;0.10;;;21.60;29.30;;;;;;4978736;28;20105;-74
2021/04/15 06:15:43;;;;;;;0.63;0.35;;;21.60;29.30;;;;;;4994268;28;20524;-74
2021/04/15 06:18:15;;;;;;;1.25;0.22;;;21.60;29.30;;;;;;4978980;28;20030;-73
2021/04/15 06:20:42;;;;;;;0.55;0.45;;;21.70;29.40;;;;;;4996045;28;20061;-73
2021/04/15 06:23:20;;;;;;;0.00;0.00;;;21.70;29.40;;;;;;4994092;28;20034;-73
2021/04/15 06:25:47;;;;;;;0.30;0.30;;;21.70;29.40;;;;;;4979068;28;20112;-73
2021/04/15 06:28:22;;;;;;;0.65;0.20;;;21.70;29.40;;;;;;4978592;28;20073;-74
2021/04/15 06:31:13;;;;;;;0.38;0.15;;;21.70;29.40;;;;;;4993854;28;20077;-75
2021/04/15 06:33:39;;;;;;;0.10;0.10;;;21.80;29.50;;;;;;4960381;28;20030;-75
2021/04/15 06:36:09;;;;;;;0.95;0.35;;;21.80;29.50;;;;;;4978049;28;20029;-75
2021/04/15 06:38:43;;;;;;;0.50;0.40;;;21.80;29.40;;;;;;4970805;28;20049;-75
2021/04/15 06:41:50;;;;;;;0.38;0.13;;;21.80;29.50;;;;;;4962473;28;20022;-75
2021/04/15 06:44:31;;;;;;;0.30;0.30;;;21.80;29.50;;;;;;4994839;28;20061;-74
2021/04/15 06:47:27;;;;;;;0.50;0.30;;;21.90;29.60;;;;;;4989348;28;20034;-75
2021/04/15 06:50:06;;;;;;;0.35;0.35;;;21.90;29.50;;;;;;4993334;28;20126;-75
2021/04/15 06:52:49;;;;;;;0.13;0.13;;;21.90;29.60;;;;;;4978222;28;20053;-74
2021/04/15 06:55:32;;;;;;;0.43;0.20;;;22.00;29.70;;;;;;4995093;28;20109;-75
2021/04/15 06:58:06;;;;;;;2.65;0.93;;;22.00;29.60;;;;;;4974262;28;20379;-75
2021/04/15 07:01:05;;;;;;;0.75;0.63;;;22.00;29.60;;;;;;4984126;28;20065;-74
2021/04/15 07:03:35;;;;;;;0.73;0.35;;;22.00;29.70;;;;;;4880959;29;20044;-74
2021/04/15 07:06:31;;;;;;;0.13;0.13;;;22.00;29.70;;;;;;4891366;29;20063;-74
2021/04/15 07:09:07;;;;;;;0.65;0.38;;;22.00;29.70;;;;;;4895970;29;20063;-75
2021/04/15 07:12:03;;;;;;;1.20;0.28;;;22.00;29.60;;;;;;4865455;29;20033;-74
2021/04/15 07:14:42;;;;;;;4.63;0.40;;;22.00;29.70;;;;;;4897911;29;20501;-72
2021/04/15 07:17:20;;;;;;;0.28;0.28;;;22.00;29.70;;;;;;4882077;29;20044;-73
2021/04/15 07:20:02;;;;;;;10.32;0.22;;;22.00;29.70;;;;;;4897137;29;20049;-73
2021/04/15 07:23:07;;;;;;;0.70;0.30;;;22.00;29.70;;;;;;4881851;29;20080;-73
2021/04/15 07:25:48;;;;;;;0.25;0.25;;;22.00;29.80;;;;;;4900494;29;20032;-73
2021/04/15 07:29:01;;;;;;;7.03;0.30;;;22.00;29.80;;;;;;4915932;29;20088;-73
2021/04/15 07:32:09;;;;;;;0.52;0.52;;;22.00;29.80;;;;;;4852509;29;20506;-73
2021/04/15 07:35:11;;;;;;;0.17;0.13;;;22.00;29.80;;;;;;4844331;29;20090;-73
2021/04/15 07:37:54;;;;;;;3.90;0.17;;;22.00;29.90;;;;;;4842815;29;20038;-73
2021/04/15 07:40:43;;;;;;;0.32;0.20;;;22.00;29.90;;;;;;4875057;29;20052;-73
2021/04/15 07:43:14;;;;;;;0.98;0.20;;;22.00;29.90;;;;;;4894010;29;20047;-75
2021/04/15 07:45:48;;;;;;;1.65;0.73;;;22.00;29.90;;;;;;4913413;29;20075;-75
2021/04/15 07:48:22;;;;;;;0.20;0.20;;;22.00;29.90;;;;;;4900096;29;20135;-75
2021/04/15 07:51:09;;;;;;;0.20;0.20;;;22.00;30.00;;;;;;4915916;29;20125;-74
2021/04/15 07:54:14;;;;;;;0.40;0.25;;;22.00;29.90;;;;;;4899690;29;20044;-75
2021/04/15 07:56:49;;;;;;;0.20;0.20;;;22.00;30.00;;;;;;4900613;29;20104;-75
2021/04/15 07:59:23;;;;;;;0.00;0.00;;;22.00;29.90;;;;;;4913569;29;20044;-74
2021/04/15 08:02:36;;;;;;;0.73;0.73;;;22.00;30.00;;;;;;4899590;29;20072;-72
2021/04/15 08:05:20;;;;;;;0.90;0.10;;;22.00;29.90;;;;;;4871313;29;20053;-73
2021/04/15 08:08:04;;;;;;;0.55;0.20;;;22.10;29.90;;;;;;4925222;28;20046;-72
2021/04/15 08:11:06;;;;;;;0.10;0.10;;;22.10;29.90;;;;;;4972457;28;20047;-72
2021/04/15 08:13:51;;;;;;;0.20;0.00;;;22.10;30.00;;;;;;4956631;28;20018;-75
2021/04/15 08:16:39;;;;;;;0.10;0.10;;;22.10;29.80;;;;;;4956492;28;20050;-75
2021/04/15 08:19:14;;;;;;;0.30;0.13;;;22.10;29.80;;;;;;4961765;28;20033;-74
2021/04/15 08:21:58;;;;;;;0.10;0.10;;;22.20;29.90;;;;;;4956769;28;20051;-74
2021/04/15 08:24:51;;;;;;;0.30;0.20;;;22.20;29.90;;;;;;4969788;28;20027;-75
2021/04/15 08:27:30;;;;;;;0.52;0.28;;;22.20;29.80;;;;;;4972479;28;20042;-75
2021/04/15 08:30:07;;;;;;;0.25;0.13;;;22.20;29.80;;;;;;4957675;28;20049;-75
2021/04/15 08:33:10;;;;;;;0.50;0.40;;;22.30;29.80;;;;;;4972306;28;20058;-75
2021/04/15 08:35:36;;;;;;;0.28;0.20;;;22.30;29.80;;;;;;4972515;28;20045;-74
2021/04/15 08:38:22;;;;;;;2.15;0.10;;;22.30;29.80;;;;;;4971906;28;20129;-74
2021/04/15 08:41:06;;;;;;;;;;;22.30;29.80;;;;;;4956661;28;20039;-75
2021/04/15 08:44:28;;;;;;;0.45;0.20;;;22.40;29.80;;;;;;4989996;28;19910;-74
2021/04/15 08:47:14;;;;;;;0.10;0.10;;;22.40;29.70;;;;;;4912921;29;20444;-75
2021/04/15 08:49:57;;;;;;;0.20;0.20;;;22.40;29.70;;;;;;4907225;29;20044;-75
2021/04/15 08:52:44;;;;;;;0.52;0.40;;;22.40;29.70;;;;;;4879328;29;20037;-75
2021/04/15 08:55:09;;;;;;;0.00;0.00;;;22.40;29.60;;;;;;4907057;29;20540;-74
2021/04/15 08:58:14;;;;;;;0.85;0.40;;;22.40;29.60;;;;;;4909431;29;20064;-75
2021/04/15 09:00:51;;;;;;;1.85;0.15;;;22.40;29.60;;;;;;4901241;29;20044;-74
2021/04/15 09:03:22;;;;;;;0.00;0.00;;;22.40;29.60;;;;;;4903329;29;20465;-75
2021/04/15 09:06:11;;;;;;;0.10;0.10;;;22.50;29.70;;;;;;4915099;29;20493;-75
2021/04/15 09:09:00;;;;;;;0.10;0.10;;;22.40;29.60;;;;;;4904066;29;20047;-75
2021/04/15 09:11:33;;;;;;;0.35;0.17;;;22.50;29.70;;;;;;4897249;29;20063;-75
2021/04/15 09:21:04;;;;;;;0.47;0.20;;;22.40;29.70;;;;;;4983033;28;20061;-75
2021/04/15 09:23:36;;;;;;;0.40;0.17;;;22.40;29.70;;;;;;5006442;28;20033;-76
2021/04/15 09:26:39;;;;;;;0.40;0.00;;;22.50;29.80;;;;;;5010309;28;20029;-75
2021/04/15 09:29:18;;;;;;;1.33;0.30;;;22.50;29.70;;;;;;4969711;28;20038;-72
2021/04/15 09:31:53;;;;;;;0.10;0.10;;;22.60;29.60;;;;;;4981331;28;20019;-72
2021/04/15 09:34:41;;;;;;;0.32;0.28;;;22.70;29.60;;;;;;4975870;28;20034;-71
2021/04/15 09:37:44;;;;;;;0.00;0.00;;;22.70;29.50;;;;;;4970642;28;20030;-71
2021/04/15 09:40:11;;;;;;;0.10;0.10;;;22.70;29.50;;;;;;4982878;28;20034;-71
2021/04/15 09:42:55;;;;;;;1.35;0.30;;;22.70;29.40;;;;;;4958194;28;20034;-71
2021/04/15 09:45:22;;;;;;;0.22;0.22;;;22.80;29.40;;;;;;4985341;28;20047;-71
2021/04/15 09:48:07;;;;;;;0.08;0.08;;;22.80;29.40;;;;;;4974680;28;20135;-71
2021/04/15 09:50:50;;;;;;;0.22;0.08;;;22.80;29.30;;;;;;4974264;28;20019;-72
2021/04/15 09:54:01;;;;;;;0.08;0.08;;;22.80;29.30;;;;;;4968182;28;20510;-71
2021/04/15 09:56:59;;;;;;;0.10;0.10;;;22.80;29.30;;;;;;4982081;28;20069;-73
2021/04/15 09:59:30;;;;;;;1.05;0.43;;;22.80;29.30;;;;;;4889704;29;20603;-76
2021/04/15 10:02:19;;;;;;;0.70;0.30;;;22.80;29.30;;;;;;4894506;29;20128;-76
2021/04/15 10:04:56;;;;;;;0.30;0.30;;;22.80;29.20;;;;;;4894130;29;20029;-76
2021/04/15 10:07:33;;;;;;;0.32;0.03;;;22.90;29.20;;;;;;4896015;29;20036;-76
2021/04/15 10:10:12;;;;;;;1.13;0.38;;;22.90;29.10;;;;;;4882237;29;20082;-76
2021/04/15 10:12:55;;;;;;;0.40;0.20;;;22.90;29.10;;;;;;4899766;29;20059;-75
2021/04/15 10:15:29;;;;;;;0.10;0.10;;;22.90;29.10;;;;;;4872418;29;20044;-75
2021/04/15 10:18:07;;;;;;;0.63;0.28;;;23.00;29.20;;;;;;4878907;29;20527;-76
2021/04/15 10:20:37;;;;;;;1.10;0.47;;;23.00;29.20;;;;;;4862295;29;20029;-74
2021/04/15 10:23:05;;;;;;;0.63;0.17;;;23.00;29.20;;;;;;4878840;29;20041;-74
2021/04/15 10:25:33;;;;;;;0.30;0.30;;;23.00;29.20;;;;;;4879176;29;20141;-79
2021/04/15 10:28:36;;;;;;;0.43;0.20;;;23.10;29.20;;;;;;4879118;29;20100;-74
2021/04/15 10:31:40;;;;;;;0.10;0.10;;;23.20;29.10;;;;;;4889696;29;20569;-76
2021/04/15 10:34:38;;;;;;;0.30;0.30;;;23.20;29.00;;;;;;4906950;28;20420;-73
2021/04/15 10:37:38;;;;;;;0.20;0.20;;;23.30;29.00;;;;;;4992475;28;20102;-73
2021/04/15 10:40:22;;;;;;;0.50;0.40;;;23.40;28.90;;;;;;4992306;28;20073;-73
2021/04/15 10:43:00;;;;;;;0.00;0.00;;;23.40;28.80;;;;;;4988125;28;20057;-73
2021/04/15 10:45:39;;;;;;;0.32;0.13;;;23.40;28.80;;;;;;4977175;28;20054;-69
2021/04/15 10:48:29;;;;;;;0.28;0.17;;;23.40;28.70;;;;;;4994872;28;20031;-69
2021/04/15 10:51:11;;;;;;;0.00;0.00;;;23.40;28.70;;;;;;4978652;28;20395;-69
2021/04/15 10:54:08;;;;;;;0.20;0.15;;;23.40;29.20;;;;;;4963796;28;20101;-69
2021/04/15 10:56:42;;;;;;;0.10;0.10;;;23.40;28.70;;;;;;4990417;28;20089;-69
2021/04/15 10:59:07;;;;;;;0.85;0.43;;;23.40;28.70;;;;;;4979505;28;20038;-70
2021/04/15 11:01:39;;;;;;;0.47;0.30;;;23.40;28.70;;;;;;4995902;28;20114;-73
2021/04/15 11:04:13;;;;;;;0.70;0.30;;;23.30;28.70;;;;;;4995415;28;20109;-73
2021/04/15 11:06:39;;;;;;;0.85;0.32;;;23.30;28.80;;;;;;4995600;28;20035;-73
2021/04/15 11:09:31;;;;;;;0.20;0.20;;;23.30;28.80;;;;;;4977338;28;20026;-73
2021/04/15 11:12:03;;;;;;;0.03;0.00;;;23.30;28.90;;;;;;4962145;28;20023;-73
2021/04/15 11:14:33;;;;;;;0.10;0.10;;;23.20;28.80;;;;;;4997224;28;20026;-73
2021/04/15 11:16:59;;;;;;;0.00;0.00;;;23.20;28.90;;;;;;4978463;28;20050;-72
2021/04/15 11:19:27;;;;;;;5.43;0.10;;;23.20;28.90;;;;;;4994792;28;20031;-73
2021/04/15 11:21:54;;;;;;;0.10;0.10;;;23.20;28.90;;;;;;4991161;28;20466;-73
2021/04/15 11:24:27;;;;;;;0.57;0.28;;;23.20;29.40;;;;;;4993496;28;20061;-73
2021/04/15 11:26:54;;;;;;;0.22;0.10;;;23.20;28.90;;;;;;4996185;28;20033;-73
2021/04/15 11:29:39;;;;;;;0.57;0.30;;;23.20;28.90;;;;;;4976836;28;20018;-73
2021/04/15 11:32:29;;;;;;;0.20;0.20;;;23.20;28.90;;;;;;4977648;28;20085;-73
2021/04/15 11:35:03;;;;;;;0.63;0.20;;;23.20;28.80;;;;;;4985479;28;20093;-73
2021/04/15 11:37:28;;;;;;;0.35;0.22;;;23.20;28.70;;;;;;4966575;28;20069;-74
2021/04/15 11:40:12;;;;;;;0.10;0.10;;;23.20;28.70;;;;;;4994734;28;20038;-74
2021/04/15 11:42:38;;;;;;;0.10;0.10;;;23.20;28.70;;;;;;4977191;28;20070;-73
2021/04/15 11:45:04;;;;;;;0.77;0.40;;;23.20;28.70;;;;;;4997196;28;20080;-74
2021/04/15 11:47:30;;;;;;;0.22;0.22;;;23.20;28.70;;;;;;4982617;28;20553;-74
2021/04/15 11:50:16;;;;;;;0.00;0.00;;;23.20;28.70;;;;;;4977305;28;20109;-74
2021/04/15 11:52:46;;;;;;;0.47;0.10;;;23.20;28.70;;;;;;4976469;28;20092;-74
2021/04/15 11:55:32;;;;;;;2.20;0.30;;;23.20;28.70;;;;;;4982091;28;20081;-74
2021/04/15 11:58:02;;;;;;;0.73;0.22;;;23.20;28.60;;;;;;4976846;28;20039;-74
2021/04/15 12:00:35;;;;;;;0.38;0.20;;;23.20;28.60;;;;;;4977314;28;20038;-74
2021/04/15 12:03:01;;;;;;;0.00;0.00;;;23.20;28.60;;;;;;4975881;28;20513;-74
2021/04/15 12:05:29;;;;;;;1.00;0.20;;;23.20;28.60;;;;;;5000856;28;20041;-74
2021/04/15 12:07:58;;;;;;;0.20;0.10;;;23.20;28.60;;;;;;4999913;28;20033;-74
2021/04/15 12:10:25;;;;;;;0.22;0.22;;;23.20;28.60;;;;;;4995833;28;20513;-74
2021/04/15 12:12:54;;;;;;;1.35;0.30;;;23.20;28.50;;;;;;4965009;28;20069;-74
2021/04/15 12:15:24;;;;;;;0.40;0.28;;;23.20;28.50;;;;;;4978484;28;20036;-74
2021/04/15 12:17:56;;;;;;;1.08;0.40;;;23.20;28.50;;;;;;4977111;28;20030;-74
2021/04/15 12:20:52;;;;;;;0.00;0.00;;;23.20;28.50;;;;;;4976813;28;20405;-74
2021/04/15 12:23:27;;;;;;;0.40;0.10;;;23.30;28.60;;;;;;4969468;28;20556;-74
2021/04/15 12:26:08;;;;;;;0.28;0.20;;;23.20;28.50;;;;;;4977095;28;20030;-74
2021/04/15 12:29:10;;;;;;;1.17;0.20;;;23.20;28.50;;;;;;4974053;28;20026;-74
2021/04/15 12:31:46;;;;;;;0.43;0.20;;;23.20;28.50;;;;;;4976815;28;20042;-74
2021/04/15 12:34:31;;;;;;;0.10;0.10;;;23.30;29.00;;;;;;4976645;28;20398;-75
2021/04/15 12:37:07;;;;;;;0.28;0.17;;;23.30;28.60;;;;;;4993436;28;20027;-74
2021/04/15 12:40:02;;;;;;;0.35;0.20;;;23.30;28.50;;;;;;4976420;28;21707;-74
2021/04/15 12:42:27;;;;;;;3.05;0.40;;;23.30;28.50;;;;;;4967254;28;20494;-74
2021/04/15 12:44:54;;;;;;;0.03;0.00;;;23.30;28.50;;;;;;4974216;28;20058;-75
2021/04/15 12:47:30;;;;;;;0.43;0.10;;;23.30;28.50;;;;;;4976544;28;20042;-75
2021/04/15 12:49:56;;;;;;;0.70;0.10;;;23.30;28.50;;;;;;4975399;28;20033;-74
2021/04/15 12:52:22;;;;;;;0.70;0.32;;;23.40;28.40;;;;;;4979530;28;20034;-77
2021/04/15 12:54:48;;;;;;;0.10;0.10;;;23.40;28.30;;;;;;4975189;28;20391;-77
2021/04/15 12:57:14;;;;;;;0.10;0.00;;;23.50;28.20;;;;;;5000293;28;20025;-74
2021/04/15 12:59:48;;;;;;;0.10;0.10;;;23.60;28.20;;;;;;4960499;28;20531;-75
2021/04/15 13:02:31;;;;;;;0.30;0.30;;;23.60;28.00;;;;;;4977607;28;20022;-74
2021/04/15 13:05:06;;;;;;;0.32;0.13;;;23.70;28.00;;;;;;4977735;28;20018;-75
2021/04/15 13:07:35;;;;;;;0.08;0.08;;;23.80;28.00;;;;;;4992089;28;20066;-74
2021/04/15 13:10:13;;;;;;;0.10;0.10;;;23.80;27.90;;;;;;4976209;28;20030;-77
2021/04/15 13:12:42;;;;;;;0.60;0.20;;;23.90;27.90;;;;;;4991439;28;20079;-76
2021/04/15 13:15:42;;;;;;;0.40;0.15;;;24.00;27.80;;;;;;4959380;28;20043;-76
2021/04/15 13:18:09;;;;;;;0.20;0.20;;;24.00;27.70;;;;;;4956054;28;20170;-70
2021/04/15 13:20:38;;;;;;;0.10;0.10;;;24.10;27.70;;;;;;4966120;28;20482;-69
2021/04/15 13:23:07;;;;;;;0.40;0.20;;;24.10;27.60;;;;;;4974308;28;20113;-69
2021/04/15 13:25:53;;;;;;;1.00;0.65;;;24.20;27.60;;;;;;4993400;28;20052;-69
2021/04/15 13:28:19;;;;;;;;;;;24.30;27.50;;;;;;4927584;29;20130;-69
2021/04/15 13:30:44;;;;;;;0.20;0.20;;;24.30;27.50;;;;;;4921791;29;20026;-69
2021/04/15 13:33:15;;;;;;;1.75;0.20;;;24.30;27.40;;;;;;4932525;29;20055;-71
2021/04/15 13:35:43;;;;;;;0.73;0.20;;;24.40;27.40;;;;;;4929570;29;20024;-70
2021/04/15 13:38:27;;;;;;;0.35;0.10;;;24.50;27.30;;;;;;4925121;29;20043;-70
2021/04/15 13:41:03;;;;;;;2.33;0.17;;;24.50;27.20;;;;;;4934406;29;20032;-70
2021/04/15 13:43:34;;;;;;;0.80;0.13;;;24.60;27.20;;;;;;4947519;29;20079;-69
2021/04/15 13:46:53;;;;;;;0.00;0.00;;;24.60;27.10;;;;;;4929402;29;20051;-71
2021/04/15 13:49:28;;;;;;;0.10;0.10;;;24.60;27.00;;;;;;4933921;29;20063;-70
2021/04/15 13:52:12;;;;;;;;;;;24.70;27.00;;;;;;4932954;29;20039;-70
2021/04/15 13:54:42;;;;;;;0.20;0.20;;;24.70;27.00;;;;;;4933430;29;20398;-71